Time;durP1;ratioP1;P1;durP2;ratioP2;P2;SDS_P1;SDS_P2;PMS_P1;PMS_P2;Temp;Humidity;BMP_temperature;BMP_pressure;BME280_temperature;BME280_humidity;BME280_pressure;Samples;Min_cycle;Max_cycle;Signal;HPM_P1;HPM_P2
2022/09/21 00:01:47;;;;;;;0.63;0.47;;;23.60;45.90;;;;;;6144921;28;22296;-58
2022/09/21 00:04:49;;;;;;;0.77;0.60;;;23.50;45.90;;;;;;6149418;28;20153;-58
2022/09/21 00:07:51;;;;;;;1.17;0.60;;;23.50;46.50;;;;;;6152522;28;20136;-56
2022/09/21 00:10:53;;;;;;;0.65;0.50;;;23.60;45.90;;;;;;6139069;28;20961;-56
2022/09/21 00:13:58;;;;;;;0.45;0.30;;;23.60;46.00;;;;;;6153436;28;20042;-57
2022/09/21 00:17:00;;;;;;;0.47;0.40;;;23.60;46.00;;;;;;6158474;28;20986;-55
2022/09/21 00:20:05;;;;;;;0.45;0.30;;;23.50;45.90;;;;;;6142451;28;20045;-57
2022/09/21 00:23:06;;;;;;;0.57;0.50;;;23.60;46.00;;;;;;6138789;28;20041;-57
2022/09/21 00:26:08;;;;;;;;;;;23.40;46.00;;;;;;6153738;28;20119;-57
2022/09/21 00:29:10;;;;;;;0.50;0.32;;;23.10;45.80;;;;;;6157491;28;19937;-57
2022/09/21 00:32:12;;;;;;;0.57;0.40;;;23.60;46.10;;;;;;6154589;28;20073;-57
2022/09/21 00:35:14;;;;;;;0.82;0.50;;;23.60;46.10;;;;;;6147610;28;20188;-58
2022/09/21 00:38:15;;;;;;;0.70;0.40;;;23.50;46.00;;;;;;6149077;28;21010;-57
2022/09/21 00:41:17;;;;;;;0.70;0.30;;;23.40;46.00;;;;;;6152662;28;20921;-57
2022/09/21 00:44:24;;;;;;;0.70;0.50;;;23.40;46.00;;;;;;6141827;28;20046;-57
2022/09/21 00:47:30;;;;;;;0.60;0.60;;;23.50;46.00;;;;;;6138857;28;20034;-57
2022/09/21 00:50:33;;;;;;;1.00;0.60;;;23.40;46.10;;;;;;6154869;28;20034;-55
2022/09/21 00:53:35;;;;;;;0.50;0.40;;;23.20;45.90;;;;;;6148610;28;20078;-57
2022/09/21 00:56:37;;;;;;;0.40;0.40;;;23.40;46.00;;;;;;6145891;28;20141;-57
2022/09/21 00:59:40;;;;;;;0.60;0.52;;;23.40;46.00;;;;;;6149234;28;20148;-56
2022/09/21 01:02:43;;;;;;;0.88;0.63;;;23.60;46.10;;;;;;6159616;28;20114;-55
2022/09/21 01:05:44;;;;;;;0.50;0.40;;;23.40;46.00;;;;;;6159349;28;20049;-57
2022/09/21 01:08:46;;;;;;;;;;;23.40;46.00;;;;;;6160126;28;20046;-56
2022/09/21 01:12:03;;;;;;;0.60;0.40;;;23.50;46.10;;;;;;6155839;28;19925;-57
2022/09/21 01:15:18;;;;;;;0.50;0.50;;;23.40;46.10;;;;;;6154475;28;20050;-57
2022/09/21 01:18:27;;;;;;;1.02;0.43;;;23.40;46.10;;;;;;6161469;28;20046;-57
2022/09/21 01:21:32;;;;;;;0.47;0.40;;;23.40;46.10;;;;;;6144500;28;20571;-55
2022/09/21 01:24:49;;;;;;;0.50;0.40;;;23.50;46.10;;;;;;6161829;28;20046;-57
2022/09/21 01:28:03;;;;;;;0.57;0.40;;;23.00;45.90;;;;;;6141283;28;20078;-58
2022/09/21 01:31:09;;;;;;;0.77;0.50;;;23.10;45.90;;;;;;6155896;28;20778;-57
2022/09/21 01:34:16;;;;;;;0.45;0.40;;;23.10;45.90;;;;;;6161613;28;20042;-57
2022/09/21 01:37:22;;;;;;;0.40;0.38;;;23.20;46.00;;;;;;6147410;28;20830;-57
2022/09/21 01:40:29;;;;;;;0.77;0.60;;;23.20;46.00;;;;;;6144189;28;20145;-57
2022/09/21 01:43:40;;;;;;;0.30;0.30;;;23.40;46.10;;;;;;6164394;28;20879;-58
2022/09/21 01:46:45;;;;;;;0.57;0.50;;;23.40;46.10;;;;;;6156377;28;20085;-58
2022/09/21 01:49:51;;;;;;;0.40;0.30;;;23.40;46.10;;;;;;6140373;28;20838;-58
2022/09/21 01:52:58;;;;;;;0.55;0.32;;;23.30;46.10;;;;;;6147314;28;20455;-56
2022/09/21 01:56:04;;;;;;;0.55;0.45;;;23.30;46.10;;;;;;6163690;28;20081;-58
2022/09/21 01:59:10;;;;;;;0.50;0.40;;;23.20;46.00;;;;;;6147598;28;20307;-58
2022/09/21 02:02:17;;;;;;;0.47;0.40;;;23.30;46.10;;;;;;6154067;28;20636;-56
2022/09/21 02:05:22;;;;;;;0.35;0.35;;;23.30;46.10;;;;;;6155469;28;20049;-55
2022/09/21 02:08:25;;;;;;;0.63;0.35;;;23.30;46.10;;;;;;6139798;28;20522;-54
2022/09/21 02:11:27;;;;;;;0.65;0.40;;;23.30;46.10;;;;;;6158876;28;20097;-58
2022/09/21 02:14:32;;;;;;;;;;;23.00;45.90;;;;;;6160132;28;20042;-54
2022/09/21 02:17:45;;;;;;;0.35;0.35;;;23.50;46.20;;;;;;6158404;28;21082;-56
2022/09/21 02:20:53;;;;;;;0.40;0.40;;;23.20;46.10;;;;;;6156718;28;20041;-58
2022/09/21 02:24:03;;;;;;;0.20;0.20;;;23.00;45.90;;;;;;6159766;28;20163;-57
2022/09/21 02:27:09;;;;;;;0.30;0.30;;;23.30;46.10;;;;;;6158292;28;20039;-57
2022/09/21 02:30:16;;;;;;;0.40;0.40;;;23.20;46.00;;;;;;6161885;28;20865;-57
2022/09/21 02:33:25;;;;;;;0.40;0.30;;;23.20;46.00;;;;;;6161734;28;20053;-57
2022/09/21 02:36:34;;;;;;;0.38;0.30;;;23.00;45.90;;;;;;6139203;28;21236;-57
2022/09/21 02:39:43;;;;;;;0.45;0.30;;;23.20;46.00;;;;;;6155429;28;20120;-58
2022/09/21 02:42:49;;;;;;;0.40;0.30;;;23.00;45.90;;;;;;6157235;28;20119;-56
2022/09/21 02:45:55;;;;;;;0.30;0.30;;;23.00;45.90;;;;;;6160999;28;20131;-57
2022/09/21 02:49:01;;;;;;;0.70;0.40;;;23.20;58.80;;;;;;6129059;28;20042;-56
2022/09/21 02:52:10;;;;;;;0.35;0.20;;;22.90;45.90;;;;;;6155308;28;20128;-53
2022/09/21 02:55:14;;;;;;;0.40;0.40;;;22.80;45.90;;;;;;6153527;28;20046;-58
2022/09/21 02:58:18;;;;;;;0.30;0.25;;;23.00;46.00;;;;;;6141914;28;20112;-57
2022/09/21 03:01:22;;;;;;;0.38;0.30;;;23.20;46.10;;;;;;6163129;28;20096;-54
2022/09/21 03:04:26;;;;;;;0.68;0.32;;;22.90;45.90;;;;;;6161557;28;20500;-57
2022/09/21 03:07:28;;;;;;;0.30;0.20;;;23.00;46.00;;;;;;6155371;28;20791;-56
2022/09/21 03:10:29;;;;;;;0.25;0.20;;;23.10;46.10;;;;;;6152093;28;20469;-57
2022/09/21 03:13:30;;;;;;;;;;;23.00;46.00;;;;;;6156444;28;20033;-57
2022/09/21 03:16:32;;;;;;;0.75;0.47;;;23.20;46.20;;;;;;6159748;28;19926;-58
2022/09/21 03:19:34;;;;;;;0.40;0.30;;;23.10;46.10;;;;;;6160622;28;20048;-57
2022/09/21 03:22:38;;;;;;;0.30;0.30;;;23.00;46.10;;;;;;6162683;28;20073;-55
2022/09/21 03:25:43;;;;;;;1.08;0.45;;;22.90;46.00;;;;;;6150603;28;20045;-57
2022/09/21 03:28:44;;;;;;;0.35;0.30;;;23.20;46.20;;;;;;6141356;28;20092;-57
2022/09/21 03:31:45;;;;;;;;;;;23.10;46.10;;;;;;6157389;28;20930;-56
2022/09/21 03:34:47;;;;;;;0.30;0.20;;;23.20;46.30;;;;;;6157104;28;20055;-57
2022/09/21 03:37:49;;;;;;;0.30;0.30;;;22.90;46.10;;;;;;6159696;28;20145;-57
2022/09/21 03:40:51;;;;;;;0.25;0.25;;;22.70;46.00;;;;;;6152838;28;20049;-58
2022/09/21 03:43:52;;;;;;;;;;;22.90;46.10;;;;;;6157924;28;20107;-58
2022/09/21 03:46:53;;;;;;;0.40;0.30;;;23.20;46.30;;;;;;6161099;28;19933;-57
2022/09/21 03:49:55;;;;;;;0.30;0.30;;;23.00;46.20;;;;;;6162430;28;20833;-57
2022/09/21 03:53:00;;;;;;;0.30;0.30;;;23.20;46.20;;;;;;6160124;28;20050;-58
2022/09/21 03:56:01;;;;;;;0.38;0.30;;;22.90;46.10;;;;;;6159081;28;20135;-58
2022/09/21 03:59:03;;;;;;;;;;;22.90;46.10;;;;;;6153196;28;20135;-57
2022/09/21 04:02:04;;;;;;;0.20;0.20;;;22.90;46.20;;;;;;6157711;28;20061;-53
2022/09/21 04:05:07;;;;;;;;;;;23.00;46.20;;;;;;6153015;28;20097;-55
2022/09/21 04:08:08;;;;;;;0.50;0.40;;;23.00;46.30;;;;;;6146425;28;19972;-55
2022/09/21 04:11:11;;;;;;;0.30;0.30;;;23.10;46.30;;;;;;6148858;28;20480;-52
2022/09/21 04:14:12;;;;;;;0.30;0.30;;;22.80;46.10;;;;;;6148140;28;20479;-55
2022/09/21 04:17:14;;;;;;;0.38;0.30;;;23.00;46.30;;;;;;6137837;28;20174;-55
2022/09/21 04:20:16;;;;;;;0.40;0.40;;;23.10;46.40;;;;;;6147014;28;20172;-51
2022/09/21 04:23:19;;;;;;;0.30;0.20;;;22.90;46.30;;;;;;6145677;28;20034;-54
2022/09/21 04:26:23;;;;;;;0.30;0.30;;;23.00;46.30;;;;;;6145519;28;20034;-53
2022/09/21 04:29:24;;;;;;;0.50;0.40;;;22.90;46.30;;;;;;6127989;28;20630;-56
2022/09/21 04:32:25;;;;;;;;;;;23.00;46.40;;;;;;6139056;28;20054;-55
2022/09/21 04:35:27;;;;;;;0.20;0.20;;;23.00;46.30;;;;;;6144922;28;20028;-55
2022/09/21 04:38:30;;;;;;;0.20;0.20;;;22.70;46.20;;;;;;6149736;28;20806;-53
2022/09/21 04:41:32;;;;;;;0.30;0.28;;;22.90;46.30;;;;;;6146656;28;20506;-57
2022/09/21 04:44:33;;;;;;;0.30;0.30;;;22.90;46.40;;;;;;6147833;28;20921;-56
2022/09/21 04:47:35;;;;;;;0.35;0.30;;;22.80;46.30;;;;;;6143456;28;20046;-57
2022/09/21 04:50:37;;;;;;;0.40;0.30;;;22.90;46.40;;;;;;6143645;28;20042;-54
2022/09/21 04:53:43;;;;;;;0.30;0.30;;;22.70;46.30;;;;;;6148480;28;20061;-55
2022/09/21 04:56:44;;;;;;;0.40;0.30;;;23.10;46.50;;;;;;6127103;28;20233;-57
2022/09/21 04:59:46;;;;;;;;;;;23.00;46.40;;;;;;6149707;28;20583;-56
2022/09/21 05:02:47;;;;;;;0.40;0.20;;;22.90;46.50;;;;;;6146215;28;20048;-58
2022/09/21 05:05:56;;;;;;;0.30;0.30;;;22.90;46.40;;;;;;6148465;28;20050;-58
2022/09/21 05:12:14;;;;;;;0.40;0.20;;;22.70;46.30;;;;;;6151268;28;20038;-57
2022/09/21 05:15:15;;;;;;;;;;;22.80;46.40;;;;;;6154219;28;20773;-56
2022/09/21 05:18:19;;;;;;;0.15;0.15;;;22.50;46.30;;;;;;6151365;28;19925;-56
2022/09/21 05:21:22;;;;;;;0.20;0.20;;;22.60;46.30;;;;;;6145476;28;20984;-56
2022/09/21 05:24:27;;;;;;;0.40;0.40;;;22.60;46.40;;;;;;6148461;28;20057;-57
2022/09/21 05:27:28;;;;;;;0.20;0.20;;;22.90;46.60;;;;;;6156317;28;20038;-57
2022/09/21 05:30:30;;;;;;;;;;;22.60;46.40;;;;;;6155631;28;20159;-58
2022/09/21 05:33:33;;;;;;;;;;;23.00;47.00;;;;;;6155482;28;19928;-55
2022/09/21 05:36:46;;;;;;;0.47;0.30;;;22.40;46.40;;;;;;6147766;28;19960;-58
2022/09/21 05:39:48;;;;;;;0.25;0.20;;;22.50;46.40;;;;;;6147449;28;20155;-57
2022/09/21 05:42:50;;;;;;;0.30;0.30;;;22.70;46.60;;;;;;6149600;28;20097;-57
2022/09/21 05:45:57;;;;;;;0.20;0.20;;;22.60;46.60;;;;;;6143487;28;20060;-57
2022/09/21 05:49:02;;;;;;;0.40;0.30;;;22.80;59.80;;;;;;6150633;28;20072;-55
2022/09/21 05:52:14;;;;;;;0.30;0.30;;;22.70;46.70;;;;;;6125603;28;20049;-57
2022/09/21 05:55:29;;;;;;;0.30;0.30;;;22.80;46.70;;;;;;6144080;28;20085;-57
2022/09/21 05:58:37;;;;;;;0.30;0.30;;;22.60;46.60;;;;;;6141649;28;20064;-56
2022/09/21 06:01:48;;;;;;;0.32;0.30;;;22.60;46.60;;;;;;6136704;28;20045;-57
2022/09/21 06:04:53;;;;;;;0.30;0.20;;;22.70;46.70;;;;;;6133709;28;21872;-56
2022/09/21 06:07:54;;;;;;;0.50;0.30;;;22.50;46.60;;;;;;6127493;28;20046;-57
2022/09/21 06:10:56;;;;;;;0.75;0.40;;;22.90;46.90;;;;;;6131140;28;20049;-57
2022/09/21 06:13:59;;;;;;;0.47;0.30;;;23.10;46.90;;;;;;6123587;28;20038;-55
2022/09/21 06:17:02;;;;;;;0.40;0.40;;;22.60;46.70;;;;;;6125797;28;21660;-57
2022/09/21 06:20:05;;;;;;;0.40;0.30;;;22.60;46.70;;;;;;6099259;28;20124;-58
2022/09/21 06:23:10;;;;;;;0.30;0.20;;;22.60;46.70;;;;;;6118362;28;21233;-57
2022/09/21 06:26:16;;;;;;;0.30;0.30;;;22.80;46.80;;;;;;6080312;28;20052;-57
2022/09/21 06:29:22;;;;;;;0.50;0.40;;;22.70;46.70;;;;;;6095062;28;21048;-57
2022/09/21 06:32:24;;;;;;;0.50;0.35;;;22.70;46.80;;;;;;6101195;28;20057;-58
2022/09/21 06:35:25;;;;;;;0.45;0.30;;;22.60;46.70;;;;;;6072059;28;20085;-57
2022/09/21 06:38:28;;;;;;;0.68;0.40;;;22.60;46.70;;;;;;6071187;28;20042;-57
2022/09/21 06:41:29;;;;;;;0.70;0.50;;;22.70;46.80;;;;;;6098224;28;20046;-57
2022/09/21 06:44:35;;;;;;;0.40;0.32;;;22.80;46.80;;;;;;6065140;28;20050;-57
2022/09/21 06:47:36;;;;;;;0.47;0.38;;;22.90;46.90;;;;;;6059026;28;20065;-56
2022/09/21 06:50:38;;;;;;;0.60;0.40;;;22.70;46.80;;;;;;6057758;28;20123;-58
2022/09/21 06:53:40;;;;;;;;;;;22.20;46.50;;;;;;6025170;28;20042;-58
2022/09/21 06:56:43;;;;;;;0.63;0.40;;;22.90;46.90;;;;;;6035394;28;19936;-56
2022/09/21 06:59:44;;;;;;;0.50;0.35;;;23.10;46.90;;;;;;6012842;28;20176;-57
2022/09/21 07:02:46;;;;;;;0.73;0.50;;;22.70;46.70;;;;;;6010767;28;20042;-58
2022/09/21 07:05:48;;;;;;;;;;;22.90;46.90;;;;;;5992913;28;20046;-57
2022/09/21 07:08:52;;;;;;;1.48;0.52;;;23.00;47.50;;;;;;5998452;28;19937;-58
2022/09/21 07:12:15;;;;;;;0.63;0.50;;;23.00;46.90;;;;;;5931247;28;20041;-57
2022/09/21 07:15:18;;;;;;;1.75;0.60;;;23.00;46.90;;;;;;5948025;28;20071;-53
2022/09/21 07:18:20;;;;;;;1.08;0.50;;;23.00;47.00;;;;;;5967203;28;20497;-55
2022/09/21 07:21:21;;;;;;;1.48;0.40;;;23.10;47.00;;;;;;5970489;28;20054;-51
2022/09/21 07:24:23;;;;;;;0.80;0.50;;;22.70;46.70;;;;;;5956606;28;20041;-52
2022/09/21 07:27:28;;;;;;;1.08;0.68;;;23.20;47.00;;;;;;5939207;28;22542;-48
2022/09/21 07:30:29;;;;;;;0.65;0.55;;;22.90;46.70;;;;;;5930721;28;20045;-51
2022/09/21 07:33:32;;;;;;;0.60;0.40;;;22.90;46.70;;;;;;5914810;28;20112;-51
2022/09/21 07:36:37;;;;;;;0.45;0.40;;;23.20;46.90;;;;;;5917783;28;20052;-53
2022/09/21 07:39:39;;;;;;;0.50;0.40;;;23.20;46.80;;;;;;5915471;28;20046;-53
2022/09/21 07:42:40;;;;;;;0.40;0.40;;;23.30;46.90;;;;;;5923388;28;21801;-48
2022/09/21 07:45:42;;;;;;;;;;;23.20;46.80;;;;;;5911598;28;30417;-49
2022/09/21 07:48:46;;;;;;;0.50;0.40;;;23.20;46.80;;;;;;5889306;28;23277;-49
2022/09/21 07:51:47;;;;;;;1.55;0.40;;;23.20;46.70;;;;;;5897517;28;20054;-53
2022/09/21 07:54:49;;;;;;;0.55;0.32;;;23.10;46.60;;;;;;5940931;28;20047;-47
2022/09/21 08:01:07;;;;;;;0.35;0.30;;;23.20;46.60;;;;;;5954100;28;20107;-50
2022/09/21 08:04:10;;;;;;;1.20;0.43;;;23.30;46.60;;;;;;5943171;28;21097;-50
2022/09/21 08:07:12;;;;;;;0.30;0.30;;;24.20;47.10;;;;;;5915367;28;20054;-53
2022/09/21 08:10:14;;;;;;;1.90;0.50;;;23.40;46.60;;;;;;5874737;28;20100;-52
2022/09/21 08:13:16;;;;;;;0.57;0.40;;;22.90;46.30;;;;;;5906803;28;31207;-49
2022/09/21 08:16:17;;;;;;;0.30;0.30;;;23.10;46.30;;;;;;5950653;28;31403;-48
2022/09/21 08:19:19;;;;;;;0.50;0.47;;;23.40;46.50;;;;;;5940036;28;45103;-51
2022/09/21 08:22:23;;;;;;;0.40;0.20;;;23.50;46.40;;;;;;5962715;28;20177;-50
2022/09/21 08:25:26;;;;;;;0.50;0.30;;;23.40;46.40;;;;;;5948248;28;20058;-47
2022/09/21 08:28:29;;;;;;;0.50;0.32;;;23.40;46.20;;;;;;5955448;28;20049;-46
2022/09/21 08:31:30;;;;;;;0.30;0.30;;;23.50;46.20;;;;;;5952178;28;20044;-53
2022/09/21 08:34:32;;;;;;;0.30;0.22;;;23.50;46.10;;;;;;5926854;28;21562;-53
2022/09/21 08:37:35;;;;;;;0.40;0.40;;;23.40;46.00;;;;;;5950724;28;20057;-53
2022/09/21 08:40:39;;;;;;;0.55;0.40;;;23.50;46.00;;;;;;5926037;28;20042;-46
2022/09/21 08:43:43;;;;;;;0.40;0.40;;;23.80;46.00;;;;;;5919919;28;36967;-47
2022/09/21 08:46:54;;;;;;;0.30;0.28;;;23.50;45.80;;;;;;5922756;28;20053;-48
2022/09/21 08:49:59;;;;;;;0.30;0.20;;;23.50;46.10;;;;;;5920524;28;20140;-52
2022/09/21 08:53:05;;;;;;;0.22;0.22;;;23.30;45.50;;;;;;5908263;28;21347;-48
2022/09/21 08:56:11;;;;;;;0.28;0.25;;;23.40;45.50;;;;;;5920484;28;20061;-50
2022/09/21 08:59:14;;;;;;;0.98;0.30;;;23.50;45.60;;;;;;5879975;28;20758;-50
2022/09/21 09:02:37;;;;;;;0.50;0.38;;;23.30;45.40;;;;;;5862231;28;20046;-52
2022/09/21 09:05:47;;;;;;;1.00;0.32;;;23.60;45.30;;;;;;5871425;28;26176;-48
2022/09/21 09:09:01;;;;;;;0.55;0.35;;;23.50;45.70;;;;;;5895652;28;37007;-48
2022/09/21 09:12:16;;;;;;;0.50;0.40;;;23.60;45.20;;;;;;5857495;28;20042;-50
2022/09/21 09:15:37;;;;;;;0.50;0.32;;;23.50;45.00;;;;;;5864790;28;20050;-53
2022/09/21 09:18:44;;;;;;;1.20;0.70;;;23.60;44.90;;;;;;5901969;28;29938;-50
2022/09/21 09:21:46;;;;;;;0.20;0.20;;;23.30;44.70;;;;;;5898725;28;20046;-52
2022/09/21 09:24:50;;;;;;;0.20;0.20;;;23.60;44.20;;;;;;5910193;28;20164;-53
2022/09/21 09:27:55;;;;;;;0.43;0.30;;;23.60;44.60;;;;;;5899077;28;24035;-54
2022/09/21 09:31:03;;;;;;;0.30;0.20;;;23.60;44.40;;;;;;5848350;28;28382;-52
2022/09/21 09:34:11;;;;;;;1.50;0.40;;;23.50;44.20;;;;;;5900459;28;20057;-50
2022/09/21 09:37:15;;;;;;;0.20;0.20;;;23.40;44.00;;;;;;5852539;28;20179;-53
2022/09/21 09:40:28;;;;;;;0.38;0.20;;;23.50;44.00;;;;;;5899906;28;20335;-49
2022/09/21 09:43:45;;;;;;;0.22;0.17;;;23.90;44.00;;;;;;5946317;28;20048;-53
2022/09/21 09:46:58;;;;;;;0.20;0.20;;;23.50;43.70;;;;;;5899640;28;20056;-51
2022/09/21 09:50:05;;;;;;;0.45;0.30;;;23.70;43.80;;;;;;5937459;28;28026;-51
2022/09/21 09:53:12;;;;;;;0.45;0.20;;;23.70;43.80;;;;;;5914559;28;20156;-52
2022/09/21 09:56:13;;;;;;;0.40;0.30;;;23.70;43.70;;;;;;5905053;28;20058;-49
2022/09/21 09:59:27;;;;;;;0.40;0.20;;;23.60;43.70;;;;;;5922780;28;21047;-54
2022/09/21 10:02:30;;;;;;;0.20;0.13;;;23.70;43.60;;;;;;5920782;28;20100;-50
2022/09/21 10:05:34;;;;;;;0.75;0.20;;;23.60;43.50;;;;;;5923495;28;20050;-46
2022/09/21 10:08:45;;;;;;;0.30;0.20;;;23.80;43.50;;;;;;5925684;28;20176;-49
2022/09/21 10:11:47;;;;;;;0.52;0.28;;;23.40;43.70;;;;;;5968821;28;20110;-50
2022/09/21 10:14:51;;;;;;;0.30;0.20;;;23.70;43.20;;;;;;5949534;28;20049;-49
2022/09/21 10:18:02;;;;;;;0.50;0.25;;;23.70;43.10;;;;;;5925894;28;28992;-48
2022/09/21 10:21:06;;;;;;;1.20;0.28;;;23.90;43.10;;;;;;5945761;28;20116;-51
2022/09/21 10:24:19;;;;;;;1.42;0.20;;;23.20;42.70;;;;;;5965290;28;20042;-47
2022/09/21 10:27:24;;;;;;;0.30;0.20;;;23.40;42.60;;;;;;5927366;28;22866;-46
2022/09/21 10:30:33;;;;;;;0.28;0.10;;;23.60;42.60;;;;;;5993280;28;20046;-50
2022/09/21 10:33:48;;;;;;;0.40;0.17;;;23.70;42.50;;;;;;6005745;28;20073;-49
2022/09/21 10:36:54;;;;;;;0.40;0.20;;;23.40;42.10;;;;;;5970689;28;20159;-49
2022/09/21 10:39:56;;;;;;;0.20;0.20;;;23.60;42.70;;;;;;6010019;28;20056;-50
2022/09/21 10:42:59;;;;;;;0.40;0.10;;;23.50;41.80;;;;;;5978102;28;27067;-51
2022/09/21 10:46:01;;;;;;;0.38;0.10;;;23.40;41.50;;;;;;6020462;28;26274;-51
2022/09/21 10:49:03;;;;;;;0.20;0.20;;;23.90;53.80;;;;;;5987975;28;25462;-47
2022/09/21 10:52:05;;;;;;;0.20;0.20;;;23.70;41.40;;;;;;6038238;28;20053;-51
2022/09/21 10:55:15;;;;;;;0.20;0.20;;;23.70;41.10;;;;;;6040841;28;20963;-52
2022/09/21 10:58:18;;;;;;;0.15;0.10;;;23.70;41.10;;;;;;6020355;28;25176;-48
2022/09/21 11:01:22;;;;;;;0.20;0.20;;;23.80;41.00;;;;;;6008558;28;25509;-53
2022/09/21 11:04:37;;;;;;;0.30;0.20;;;23.80;40.90;;;;;;6026586;28;25584;-51
2022/09/21 11:07:44;;;;;;;0.40;0.30;;;23.70;40.70;;;;;;6024011;28;20049;-49
2022/09/21 11:10:59;;;;;;;0.25;0.20;;;23.60;40.70;;;;;;5980547;28;20549;-48
2022/09/21 11:14:13;;;;;;;0.30;0.20;;;23.80;40.70;;;;;;6039178;28;20068;-47
2022/09/21 11:17:20;;;;;;;0.40;0.30;;;23.80;40.60;;;;;;6012522;28;20050;-52
2022/09/21 11:20:29;;;;;;;0.28;0.10;;;23.90;40.60;;;;;;6040853;28;20042;-48
2022/09/21 11:23:43;;;;;;;0.20;0.20;;;23.80;40.50;;;;;;6048901;28;20073;-51
2022/09/21 11:26:50;;;;;;;0.13;0.13;;;23.80;40.40;;;;;;6034985;28;20080;-49
2022/09/21 11:30:00;;;;;;;0.10;0.10;;;23.90;40.40;;;;;;6047201;28;20480;-53
2022/09/21 11:33:17;;;;;;;0.10;0.10;;;23.90;40.40;;;;;;6007893;28;20049;-52
2022/09/21 11:36:30;;;;;;;0.32;0.20;;;23.90;40.30;;;;;;5981343;28;20042;-46
2022/09/21 11:39:45;;;;;;;0.65;0.22;;;23.90;41.00;;;;;;5979977;28;20042;-47
2022/09/21 11:42:58;;;;;;;0.10;0.10;;;23.90;40.30;;;;;;5997068;28;20042;-48
2022/09/21 11:46:30;;;;;;;1.88;0.30;;;24.00;40.80;;;;;;5984243;28;21634;-50
2022/09/21 11:49:51;;;;;;;0.40;0.10;;;23.90;40.30;;;;;;5974246;28;20042;-55
2022/09/21 11:53:24;;;;;;;1.85;0.28;;;23.50;40.10;;;;;;5969775;28;20045;-53
2022/09/21 11:56:41;;;;;;;0.30;0.10;;;24.00;40.40;;;;;;5953842;28;20058;-55
2022/09/21 11:59:59;;;;;;;0.45;0.30;;;24.00;40.40;;;;;;5919140;28;20045;-55
2022/09/21 12:03:29;;;;;;;0.60;0.20;;;24.10;40.60;;;;;;5908421;28;20050;-59
2022/09/21 12:06:44;;;;;;;0.47;0.17;;;24.10;40.70;;;;;;5920710;28;20827;-58
2022/09/21 12:10:07;;;;;;;1.95;0.22;;;24.10;40.60;;;;;;5972596;28;20046;-55
2022/09/21 12:13:24;;;;;;;0.35;0.17;;;23.80;40.70;;;;;;5949833;28;20041;-56
2022/09/21 12:16:36;;;;;;;0.20;0.20;;;24.00;40.80;;;;;;5957961;28;27605;-55
2022/09/21 12:19:44;;;;;;;;;;;24.00;41.10;;;;;;5984047;28;26874;-60
2022/09/21 12:22:50;;;;;;;0.32;0.20;;;24.10;41.10;;;;;;6013628;28;19929;-57
2022/09/21 12:25:57;;;;;;;0.20;0.20;;;24.10;41.20;;;;;;5972821;28;20053;-57
2022/09/21 12:29:02;;;;;;;0.60;0.20;;;24.20;41.20;;;;;;5984322;28;20042;-54
2022/09/21 12:32:11;;;;;;;0.43;0.20;;;24.00;40.80;;;;;;5925281;28;20124;-56
2022/09/21 12:35:18;;;;;;;0.22;0.20;;;24.20;40.70;;;;;;5961026;28;28118;-58
2022/09/21 12:38:26;;;;;;;0.73;0.20;;;24.00;40.30;;;;;;5916039;28;23925;-60
2022/09/21 12:41:34;;;;;;;1.02;0.20;;;24.20;40.30;;;;;;5966671;28;25331;-57
2022/09/21 12:44:51;;;;;;;0.25;0.20;;;24.30;40.30;;;;;;5964250;28;23860;-58
2022/09/21 12:47:57;;;;;;;0.40;0.30;;;24.30;40.40;;;;;;5928245;28;24173;-58
2022/09/21 12:51:06;;;;;;;0.28;0.20;;;24.30;40.90;;;;;;5931563;28;20057;-58
2022/09/21 12:54:17;;;;;;;0.35;0.30;;;24.30;40.20;;;;;;5957976;28;21381;-58
2022/09/21 12:57:30;;;;;;;0.65;0.10;;;24.10;40.00;;;;;;5983304;28;20046;-58
2022/09/21 13:00:59;;;;;;;1.45;0.20;;;24.30;40.10;;;;;;5942878;28;20140;-57
2022/09/21 13:04:26;;;;;;;0.73;0.10;;;24.30;40.20;;;;;;5964525;28;21851;-58
2022/09/21 13:07:45;;;;;;;0.28;0.10;;;24.40;39.80;;;;;;5974478;28;28189;-54
2022/09/21 13:10:58;;;;;;;0.30;0.20;;;24.40;39.80;;;;;;5907606;28;20054;-57
2022/09/21 13:14:03;;;;;;;0.90;0.20;;;24.20;39.60;;;;;;5941231;28;20182;-57
2022/09/21 13:17:05;;;;;;;0.20;0.20;;;24.40;39.70;;;;;;5922315;28;20049;-56
2022/09/21 13:20:18;;;;;;;1.15;0.30;;;24.40;39.70;;;;;;5904099;28;20046;-58
2022/09/21 13:23:25;;;;;;;0.30;0.28;;;24.50;39.50;;;;;;5948671;28;20061;-57
2022/09/21 13:26:34;;;;;;;0.10;0.10;;;24.30;39.40;;;;;;5943125;28;20049;-56
2022/09/21 13:29:38;;;;;;;0.30;0.20;;;24.50;39.30;;;;;;5943342;28;20245;-56
2022/09/21 13:32:51;;;;;;;0.47;0.22;;;24.50;39.30;;;;;;5888110;28;21027;-57
2022/09/21 13:36:04;;;;;;;0.20;0.20;;;24.60;39.30;;;;;;5928362;28;20999;-57
2022/09/21 13:39:16;;;;;;;0.10;0.10;;;24.50;39.20;;;;;;5877113;28;20846;-54
2022/09/21 13:42:43;;;;;;;0.40;0.22;;;24.50;39.10;;;;;;5936477;28;20110;-55
2022/09/21 13:45:53;;;;;;;0.45;0.30;;;24.60;39.20;;;;;;5923407;28;25290;-56
2022/09/21 13:48:55;;;;;;;0.15;0.15;;;24.50;50.60;;;;;;5930140;28;29274;-55
2022/09/21 13:52:00;;;;;;;0.17;0.17;;;24.60;39.20;;;;;;5947969;28;20172;-56
2022/09/21 13:55:04;;;;;;;0.50;0.30;;;24.60;39.20;;;;;;5959571;28;20045;-54
2022/09/21 13:58:18;;;;;;;0.10;0.10;;;24.60;39.20;;;;;;5915329;28;21651;-55
2022/09/21 14:01:22;;;;;;;0.20;0.17;;;24.60;39.00;;;;;;5934385;28;20039;-56
2022/09/21 14:04:49;;;;;;;1.33;0.40;;;24.60;39.00;;;;;;5948031;28;20068;-55
2022/09/21 14:07:55;;;;;;;0.20;0.20;;;24.60;38.90;;;;;;5913334;28;20042;-57
2022/09/21 14:11:06;;;;;;;0.20;0.20;;;24.70;39.00;;;;;;5959698;28;20042;-55
2022/09/21 14:14:19;;;;;;;0.10;0.10;;;24.60;38.90;;;;;;5941208;28;20959;-53
2022/09/21 14:17:35;;;;;;;0.20;0.20;;;24.60;38.80;;;;;;5951920;28;20050;-52
2022/09/21 14:20:37;;;;;;;0.55;0.20;;;24.70;38.90;;;;;;5926860;28;20243;-54
2022/09/21 14:23:40;;;;;;;0.73;0.20;;;24.60;39.00;;;;;;5945885;28;21175;-49
2022/09/21 14:26:51;;;;;;;1.50;0.28;;;24.60;39.00;;;;;;5953725;28;21310;-53
2022/09/21 14:30:01;;;;;;;0.57;0.40;;;24.60;39.00;;;;;;5941212;28;20075;-52
2022/09/21 14:33:21;;;;;;;1.90;0.40;;;24.60;39.10;;;;;;5919758;28;21363;-52
2022/09/21 14:36:29;;;;;;;1.38;0.20;;;24.30;38.90;;;;;;5962511;28;20132;-54
2022/09/21 14:39:36;;;;;;;1.33;0.20;;;24.30;39.00;;;;;;5935806;28;20038;-54
2022/09/21 14:42:40;;;;;;;0.75;0.30;;;24.50;39.10;;;;;;5954592;28;20140;-53
2022/09/21 14:46:00;;;;;;;0.65;0.20;;;24.60;39.30;;;;;;5946234;28;20058;-54
2022/09/21 14:49:15;;;;;;;0.75;0.47;;;24.30;50.90;;;;;;5946774;28;20304;-53
2022/09/21 14:52:29;;;;;;;0.77;0.32;;;24.50;39.30;;;;;;5961318;28;20045;-50
2022/09/21 14:55:52;;;;;;;0.50;0.40;;;24.60;39.50;;;;;;5960053;28;20361;-55
2022/09/21 14:59:09;;;;;;;1.23;0.30;;;24.50;39.50;;;;;;5935961;28;20136;-53
2022/09/21 15:02:19;;;;;;;0.98;0.35;;;24.50;39.50;;;;;;5924995;28;20049;-53
2022/09/21 15:05:30;;;;;;;1.67;0.40;;;24.50;39.60;;;;;;5928861;28;20044;-50
2022/09/21 15:12:08;;;;;;;0.20;0.20;;;24.50;39.60;;;;;;5947258;28;20874;-54
2022/09/21 15:15:23;;;;;;;0.22;0.20;;;24.50;39.50;;;;;;5924687;28;20192;-54
2022/09/21 15:18:25;;;;;;;0.30;0.20;;;24.50;39.50;;;;;;5935380;28;21318;-52
2022/09/21 15:21:29;;;;;;;0.13;0.10;;;24.10;39.30;;;;;;5968048;28;20040;-55
2022/09/21 15:24:32;;;;;;;0.15;0.10;;;24.30;39.30;;;;;;5954831;28;20041;-51
2022/09/21 15:27:34;;;;;;;0.22;0.20;;;24.50;39.40;;;;;;5940820;28;20092;-55
2022/09/21 15:30:45;;;;;;;0.15;0.15;;;24.40;39.30;;;;;;5957251;28;20045;-56
2022/09/21 15:33:49;;;;;;;0.05;0.05;;;24.60;39.50;;;;;;5967538;28;20045;-53
2022/09/21 15:36:53;;;;;;;0.25;0.20;;;24.50;39.30;;;;;;5981655;28;20058;-54
2022/09/21 15:40:00;;;;;;;0.20;0.20;;;24.50;39.20;;;;;;5986454;28;20045;-53
2022/09/21 15:43:05;;;;;;;0.30;0.20;;;24.50;39.20;;;;;;5988492;28;20120;-55
2022/09/21 15:46:10;;;;;;;0.20;0.20;;;24.50;39.20;;;;;;5958236;28;20053;-54
2022/09/21 15:49:20;;;;;;;0.40;0.20;;;24.50;39.30;;;;;;5977576;28;28195;-54
2022/09/21 15:52:30;;;;;;;0.20;0.15;;;24.50;39.20;;;;;;5986308;28;20156;-54
2022/09/21 15:55:32;;;;;;;0.20;0.20;;;24.60;39.30;;;;;;6007943;28;20034;-53
2022/09/21 15:58:36;;;;;;;0.10;0.10;;;24.50;39.20;;;;;;6016398;28;20414;-55
2022/09/21 16:01:41;;;;;;;0.10;0.10;;;24.60;39.30;;;;;;5987619;28;20998;-55
2022/09/21 16:04:48;;;;;;;1.50;0.20;;;24.60;39.60;;;;;;6005197;28;20171;-56
2022/09/21 16:08:04;;;;;;;0.10;0.10;;;24.50;39.30;;;;;;6014878;28;20223;-52
2022/09/21 16:11:15;;;;;;;0.20;0.20;;;24.50;39.30;;;;;;6004458;28;20052;-55
2022/09/21 16:17:36;;;;;;;0.70;0.30;;;24.60;39.30;;;;;;6021598;28;20077;-56
2022/09/21 16:20:41;;;;;;;0.65;0.30;;;24.40;39.30;;;;;;6033208;28;20053;-59
2022/09/21 16:23:43;;;;;;;1.92;0.40;;;24.30;39.30;;;;;;6048786;28;20056;-58
2022/09/21 16:26:56;;;;;;;0.52;0.28;;;24.40;39.30;;;;;;6056509;28;20045;-61
2022/09/21 16:29:59;;;;;;;0.20;0.20;;;24.50;39.40;;;;;;6065068;28;20045;-58